Time;durP1;ratioP1;P1;durP2;ratioP2;P2;SDS_P1;SDS_P2;PMS_P1;PMS_P2;Temp;Humidity;BMP_temperature;BMP_pressure;BME280_temperature;BME280_humidity;BME280_pressure;Samples;Min_cycle;Max_cycle;Signal;HPM_P1;HPM_P2
2021/04/14 00:02:05;;;;;;;2.60;0.50;;;28.80;43.70;;;;;;5084102;28;20987;-81
2021/04/14 00:04:33;;;;;;;2.10;0.50;;;28.70;45.30;;;;;;5088814;28;20373;-82
2021/04/14 00:07:01;;;;;;;3.60;0.50;;;28.20;46.40;;;;;;5090135;28;20381;-81
2021/04/14 00:09:28;;;;;;;3.90;0.60;;;27.80;46.80;;;;;;5089174;28;20872;-82
2021/04/14 00:11:58;;;;;;;2.28;0.47;;;27.60;49.90;;;;;;5087455;28;20798;-82
2021/04/14 00:14:26;;;;;;;3.05;0.40;;;28.00;46.50;;;;;;5090787;28;20831;-81
2021/04/14 00:16:55;;;;;;;3.63;0.70;;;28.70;46.00;;;;;;5091517;28;20391;-82
2021/04/14 00:19:23;;;;;;;2.35;0.63;;;28.80;46.70;;;;;;5089772;28;20381;-82
2021/04/14 00:21:50;;;;;;;1.00;0.40;;;28.90;46.50;;;;;;5090821;28;20467;-82
2021/04/14 00:24:18;;;;;;;1.52;0.50;;;28.80;43.10;;;;;;5090749;28;20376;-81
2021/04/14 00:26:45;;;;;;;2.50;0.43;;;28.30;41.30;;;;;;5090929;28;20392;-81
2021/04/14 00:29:13;;;;;;;1.17;0.30;;;27.90;44.90;;;;;;5090382;28;20422;-82
2021/04/14 00:31:40;;;;;;;1.95;0.60;;;28.20;43.70;;;;;;5090706;28;20399;-82
2021/04/14 00:34:09;;;;;;;1.40;0.47;;;27.90;42.60;;;;;;5090706;28;20388;-82
2021/04/14 00:36:37;;;;;;;2.40;0.70;;;27.90;44.40;;;;;;5090681;28;20828;-82
2021/04/14 00:39:10;;;;;;;2.07;0.40;;;28.30;44.20;;;;;;5090089;28;20376;-81
2021/04/14 00:41:38;;;;;;;2.50;0.40;;;28.50;43.60;;;;;;5089280;28;20797;-82
2021/04/14 00:44:05;;;;;;;2.33;0.45;;;28.90;43.00;;;;;;5105955;28;20374;-81
2021/04/14 00:46:33;;;;;;;3.80;0.60;;;28.70;40.70;;;;;;5110853;28;20378;-81
2021/04/14 00:49:00;;;;;;;2.95;0.43;;;28.80;42.20;;;;;;5110629;28;20390;-82
2021/04/14 00:51:28;;;;;;;1.30;0.50;;;28.70;41.10;;;;;;5098098;28;20463;-82
2021/04/14 00:53:59;;;;;;;3.80;0.57;;;28.80;40.40;;;;;;5088349;28;20507;-81
2021/04/14 00:56:26;;;;;;;2.00;0.40;;;28.70;41.30;;;;;;5088709;28;20419;-82
2021/04/14 00:58:53;;;;;;;2.30;0.40;;;28.80;41.20;;;;;;5089261;28;20373;-81
2021/04/14 01:01:20;;;;;;;2.33;0.52;;;28.50;41.30;;;;;;5097949;28;20471;-81
2021/04/14 01:03:47;;;;;;;2.87;0.53;;;27.90;40.00;;;;;;5090262;28;20400;-81
2021/04/14 01:06:18;;;;;;;3.63;0.50;;;27.60;42.20;;;;;;5089902;28;20458;-82
2021/04/14 01:08:45;;;;;;;3.27;0.47;;;26.80;42.40;;;;;;5090130;28;20423;-81
2021/04/14 01:11:14;;;;;;;1.15;0.40;;;25.50;42.90;;;;;;5089825;28;20369;-82
2021/04/14 01:13:41;;;;;;;3.58;0.40;;;24.70;44.70;;;;;;5089169;28;20376;-82
2021/04/14 01:16:09;;;;;;;1.25;0.40;;;24.30;47.70;;;;;;5084367;28;20392;-82
2021/04/14 01:18:38;;;;;;;2.15;0.52;;;23.90;46.30;;;;;;5088743;28;20388;-81
2021/04/14 01:21:19;;;;;;;3.50;0.52;;;23.60;47.50;;;;;;5089834;28;20395;-81
2021/04/14 01:23:46;;;;;;;2.90;0.60;;;23.40;48.80;;;;;;5089543;28;20803;-81
2021/04/14 01:26:13;;;;;;;1.77;0.53;;;23.50;49.20;;;;;;5089221;28;20380;-80
2021/04/14 01:28:44;;;;;;;2.20;0.30;;;23.50;48.40;;;;;;5089265;28;20373;-81
2021/04/14 01:31:15;;;;;;;2.20;0.40;;;23.30;47.50;;;;;;5088524;28;20437;-81
2021/04/14 01:33:42;;;;;;;0.70;0.50;;;23.40;50.50;;;;;;5088895;28;20372;-81
2021/04/14 01:36:10;;;;;;;1.52;0.40;;;23.40;49.40;;;;;;5089129;28;20482;-80
2021/04/14 01:38:38;;;;;;;1.75;0.50;;;23.40;49.80;;;;;;5090476;28;20377;-80
2021/04/14 01:41:07;;;;;;;1.13;0.35;;;23.40;50.40;;;;;;5088102;28;20424;-81
2021/04/14 01:43:34;;;;;;;1.25;0.50;;;23.40;48.40;;;;;;5088603;28;20376;-81
2021/04/14 01:46:01;;;;;;;3.67;0.50;;;23.50;50.80;;;;;;5072788;28;21046;-81
2021/04/14 01:48:30;;;;;;;4.13;0.50;;;23.60;48.60;;;;;;5088107;28;20412;-82
2021/04/14 01:50:57;;;;;;;4.05;0.50;;;23.50;49.50;;;;;;5089074;28;20430;-81
2021/04/14 01:53:24;;;;;;;1.10;0.50;;;23.40;48.70;;;;;;5088778;28;20735;-80
2021/04/14 01:55:52;;;;;;;2.03;0.43;;;23.20;49.30;;;;;;5088878;28;20481;-80
2021/04/14 01:58:20;;;;;;;2.25;0.40;;;23.00;48.40;;;;;;5088521;28;20514;-81
2021/04/14 02:00:56;;;;;;;1.48;0.35;;;22.80;48.10;;;;;;5089277;28;20380;-80
2021/04/14 02:03:25;;;;;;;4.18;0.40;;;22.70;48.80;;;;;;5087662;28;20384;-81
2021/04/14 02:05:52;;;;;;;1.27;0.40;;;22.60;50.70;;;;;;5089391;28;20379;-80
2021/04/14 02:08:19;;;;;;;2.83;0.40;;;22.60;50.90;;;;;;5088121;28;20393;-79
2021/04/14 02:10:46;;;;;;;2.30;0.30;;;22.70;51.20;;;;;;5088129;28;20411;-79
2021/04/14 02:13:16;;;;;;;3.65;0.40;;;22.80;52.90;;;;;;5091625;28;21236;-80
2021/04/14 02:15:44;;;;;;;1.98;0.45;;;22.90;52.50;;;;;;5091947;28;20427;-80
2021/04/14 02:18:11;;;;;;;2.80;0.55;;;23.00;51.30;;;;;;5092616;28;20395;-80
2021/04/14 02:20:38;;;;;;;2.03;0.55;;;23.00;50.20;;;;;;5090848;28;20747;-79
2021/04/14 02:23:20;;;;;;;3.40;0.50;;;23.00;49.30;;;;;;5092559;28;20380;-80
2021/04/14 02:25:48;;;;;;;1.48;0.43;;;23.00;49.30;;;;;;5092980;28;20390;-79
2021/04/14 02:28:16;;;;;;;2.50;0.68;;;23.00;54.20;;;;;;5087230;28;20438;-80
2021/04/14 02:30:43;;;;;;;2.72;0.55;;;22.90;48.00;;;;;;5093049;28;20376;-80
2021/04/14 02:33:11;;;;;;;2.65;0.43;;;22.90;49.40;;;;;;5098716;28;20378;-80
2021/04/14 02:35:38;;;;;;;1.15;0.55;;;22.90;49.90;;;;;;5113060;28;20402;-79
2021/04/14 02:38:07;;;;;;;1.30;0.40;;;23.00;49.40;;;;;;5113159;28;20371;-79
2021/04/14 02:40:35;;;;;;;4.18;0.80;;;23.10;48.90;;;;;;5093394;28;20972;-79
2021/04/14 02:43:02;;;;;;;5.13;0.63;;;23.00;49.30;;;;;;5091173;28;20823;-79
2021/04/14 02:45:31;;;;;;;1.45;0.50;;;23.00;48.40;;;;;;5092478;28;20879;-80
2021/04/14 02:47:58;;;;;;;6.57;0.60;;;22.90;49.30;;;;;;5091880;28;20391;-79
2021/04/14 02:50:26;;;;;;;2.60;0.60;;;22.90;51.50;;;;;;5092661;28;20819;-79
2021/04/14 02:52:54;;;;;;;2.00;0.50;;;22.90;50.10;;;;;;5090740;28;20747;-79
2021/04/14 02:55:24;;;;;;;1.08;0.50;;;23.00;51.10;;;;;;5092081;28;20469;-79
2021/04/14 02:57:51;;;;;;;1.77;0.60;;;23.00;52.40;;;;;;5092171;28;20368;-79
2021/04/14 03:00:20;;;;;;;1.50;0.65;;;23.10;50.20;;;;;;5076097;28;20394;-79
2021/04/14 03:02:47;;;;;;;1.70;0.60;;;23.10;50.80;;;;;;5071837;28;20378;-80
2021/04/14 03:05:17;;;;;;;2.80;0.85;;;23.00;53.30;;;;;;5072008;28;20676;-79
2021/04/14 03:07:44;;;;;;;1.60;0.80;;;23.00;52.50;;;;;;5071988;28;20435;-80
2021/04/14 03:10:12;;;;;;;1.42;0.50;;;22.90;51.70;;;;;;5086449;28;20376;-80
2021/04/14 03:12:40;;;;;;;1.88;0.80;;;22.80;52.70;;;;;;5089003;28;20463;-80
2021/04/14 03:15:10;;;;;;;4.13;0.80;;;22.80;52.90;;;;;;5071668;28;20493;-80
2021/04/14 03:17:37;;;;;;;5.13;0.80;;;22.60;53.20;;;;;;5072661;28;20396;-80
2021/04/14 03:20:08;;;;;;;3.15;0.80;;;22.50;52.70;;;;;;5088755;28;20380;-80
2021/04/14 03:22:36;;;;;;;2.40;0.88;;;22.50;52.10;;;;;;5091731;28;20368;-80
2021/04/14 03:25:04;;;;;;;3.05;0.60;;;22.40;52.40;;;;;;5092632;28;20391;-81
2021/04/14 03:27:31;;;;;;;3.70;0.80;;;22.40;52.30;;;;;;5092258;28;20375;-80
2021/04/14 03:29:58;;;;;;;2.63;0.82;;;22.50;54.30;;;;;;5092009;28;20369;-79
2021/04/14 03:32:25;;;;;;;1.80;0.80;;;22.50;56.80;;;;;;5091703;28;20388;-80
2021/04/14 03:34:52;;;;;;;1.63;0.70;;;22.50;54.50;;;;;;5091725;28;20802;-80
2021/04/14 03:37:19;;;;;;;3.40;0.90;;;22.60;55.00;;;;;;5091389;28;20368;-80
2021/04/14 03:39:47;;;;;;;3.42;0.98;;;22.80;54.80;;;;;;5091737;28;20373;-80
2021/04/14 03:42:14;;;;;;;4.50;1.08;;;23.10;55.60;;;;;;5090932;28;20871;-81
2021/04/14 03:44:42;;;;;;;5.13;0.90;;;23.30;53.70;;;;;;5091388;28;20379;-80
2021/04/14 03:47:09;;;;;;;4.65;1.27;;;23.40;54.90;;;;;;5091975;28;20415;-80
2021/04/14 03:49:36;;;;;;;4.20;1.70;;;23.50;55.00;;;;;;5090741;28;20388;-81
2021/04/14 03:52:03;;;;;;;3.33;1.30;;;23.50;54.20;;;;;;5080436;28;20385;-81
2021/04/14 03:54:30;;;;;;;4.40;1.50;;;23.60;50.70;;;;;;5070775;28;20447;-80
2021/04/14 03:56:57;;;;;;;2.60;1.00;;;23.50;52.00;;;;;;5070946;28;20421;-80
2021/04/14 03:59:24;;;;;;;2.08;0.60;;;23.60;53.50;;;;;;5074798;28;20369;-80
2021/04/14 04:01:54;;;;;;;3.35;0.40;;;23.60;50.90;;;;;;5082648;28;20392;-79
2021/04/14 04:04:22;;;;;;;2.15;0.50;;;23.70;50.50;;;;;;5090877;28;20372;-80
2021/04/14 04:06:49;;;;;;;2.05;0.65;;;23.80;49.30;;;;;;5088943;28;20724;-80
2021/04/14 04:09:16;;;;;;;3.13;0.45;;;23.90;48.10;;;;;;5091095;28;20376;-80
2021/04/14 04:11:44;;;;;;;2.17;0.80;;;23.80;48.50;;;;;;5091056;28;20372;-80
2021/04/14 04:14:11;;;;;;;3.03;0.80;;;23.70;49.50;;;;;;5090767;28;20543;-79
2021/04/14 04:16:38;;;;;;;2.38;0.60;;;23.70;51.30;;;;;;5091238;28;20380;-80
2021/04/14 04:19:05;;;;;;;2.67;0.85;;;23.70;52.60;;;;;;5090692;28;20384;-80
2021/04/14 04:21:32;;;;;;;7.13;5.22;;;23.80;51.70;;;;;;5091353;28;20464;-80
2021/04/14 04:23:59;;;;;;;4.47;3.60;;;23.90;52.20;;;;;;5090523;28;20379;-79
2021/04/14 04:26:26;;;;;;;4.10;1.60;;;24.10;52.90;;;;;;5090770;28;20373;-80
2021/04/14 04:28:53;;;;;;;1.90;0.90;;;24.10;51.40;;;;;;5090739;28;20467;-79
2021/04/14 04:31:20;;;;;;;1.33;0.60;;;24.20;50.80;;;;;;5090766;28;20364;-80
2021/04/14 04:33:47;;;;;;;2.83;0.75;;;24.20;49.20;;;;;;5090965;28;20380;-80
2021/04/14 04:36:14;;;;;;;3.63;0.73;;;24.10;49.70;;;;;;5092650;28;20526;-79
2021/04/14 04:38:41;;;;;;;3.08;0.50;;;23.90;49.90;;;;;;5093687;28;20371;-79
2021/04/14 04:41:08;;;;;;;2.40;0.47;;;23.80;50.50;;;;;;5094216;28;20385;-80
2021/04/14 04:43:35;;;;;;;2.03;0.45;;;23.70;50.20;;;;;;5094141;28;20365;-80
2021/04/14 04:46:02;;;;;;;1.30;0.40;;;23.60;50.80;;;;;;5095203;28;20914;-80
2021/04/14 04:48:29;;;;;;;3.47;0.60;;;23.60;50.10;;;;;;5091244;28;20760;-81
2021/04/14 04:50:57;;;;;;;1.63;0.33;;;23.60;51.00;;;;;;5094981;28;20372;-80
2021/04/14 04:53:25;;;;;;;0.82;0.40;;;23.60;51.00;;;;;;5095126;28;20843;-80
2021/04/14 04:55:53;;;;;;;2.78;0.50;;;23.70;49.30;;;;;;5094935;28;20400;-80
2021/04/14 04:58:20;;;;;;;4.43;0.50;;;24.00;49.00;;;;;;5095569;28;20377;-80
2021/04/14 05:00:47;;;;;;;2.25;0.47;;;24.30;49.70;;;;;;5094928;28;20395;-79
2021/04/14 05:03:16;;;;;;;2.22;0.40;;;24.40;48.60;;;;;;5095112;28;20380;-80
2021/04/14 05:05:44;;;;;;;2.80;0.40;;;24.30;49.10;;;;;;5093842;28;20408;-80
2021/04/14 05:08:12;;;;;;;2.30;0.40;;;24.30;49.20;;;;;;5093447;28;20408;-80
2021/04/14 05:10:39;;;;;;;3.75;0.50;;;24.40;49.10;;;;;;5093657;28;20429;-80
2021/04/14 05:13:10;;;;;;;1.33;0.40;;;24.50;48.80;;;;;;5094463;28;20415;-79
2021/04/14 05:15:39;;;;;;;0.60;0.30;;;24.40;50.00;;;;;;5106766;28;20481;-80
2021/04/14 05:18:08;;;;;;;1.47;0.50;;;24.30;47.70;;;;;;5081131;28;20380;-80
2021/04/14 05:20:35;;;;;;;1.65;0.30;;;24.20;47.00;;;;;;5094220;28;20416;-80
2021/04/14 05:23:02;;;;;;;1.50;0.40;;;24.10;49.20;;;;;;5094017;28;20379;-81
2021/04/14 05:25:32;;;;;;;4.22;0.40;;;24.00;48.30;;;;;;5094092;28;20920;-80
2021/04/14 05:28:04;;;;;;;2.95;0.40;;;23.90;50.20;;;;;;5093619;28;20384;-81
2021/04/14 05:30:32;;;;;;;0.70;0.30;;;23.90;49.50;;;;;;5082754;28;20719;-81
2021/04/14 05:33:07;;;;;;;3.53;0.45;;;23.80;48.90;;;;;;5111370;28;20456;-80
2021/04/14 05:35:35;;;;;;;2.20;0.52;;;23.90;50.10;;;;;;5091516;28;20408;-80
2021/04/14 05:38:02;;;;;;;3.28;0.70;;;23.90;47.70;;;;;;5070598;28;20386;-80
2021/04/14 05:40:29;;;;;;;1.67;0.40;;;24.00;49.40;;;;;;5091087;28;20751;-80
2021/04/14 05:42:57;;;;;;;1.23;0.43;;;23.90;48.50;;;;;;5091506;28;20827;-80
2021/04/14 05:45:29;;;;;;;2.65;0.40;;;24.00;48.60;;;;;;5091229;28;20383;-79
2021/04/14 05:47:56;;;;;;;3.05;0.43;;;24.00;48.20;;;;;;5091498;28;20422;-80
2021/04/14 05:50:26;;;;;;;2.73;0.50;;;24.00;49.30;;;;;;5092010;28;20403;-80
2021/04/14 05:52:53;;;;;;;1.25;0.50;;;23.90;50.30;;;;;;5091442;28;20376;-79
2021/04/14 05:55:21;;;;;;;3.35;0.60;;;23.90;50.30;;;;;;5090507;28;20404;-79
2021/04/14 05:57:48;;;;;;;3.00;0.95;;;23.80;49.30;;;;;;5090335;28;20383;-80
2021/04/14 06:00:17;;;;;;;4.10;0.70;;;23.70;50.30;;;;;;5090222;28;20474;-80
2021/04/14 06:02:44;;;;;;;2.80;0.70;;;23.60;50.90;;;;;;5089718;28;20906;-80
2021/04/14 06:05:14;;;;;;;2.40;0.40;;;23.50;51.70;;;;;;5094604;28;20395;-80
2021/04/14 06:07:41;;;;;;;3.33;0.57;;;23.40;50.80;;;;;;5093112;28;20369;-80
2021/04/14 06:10:08;;;;;;;3.25;0.40;;;23.30;49.60;;;;;;5102913;28;20367;-80
2021/04/14 06:12:35;;;;;;;3.78;0.47;;;23.20;49.70;;;;;;5109454;28;20774;-79
2021/04/14 06:15:09;;;;;;;3.73;0.43;;;23.30;49.00;;;;;;5089021;28;20400;-79
2021/04/14 06:17:35;;;;;;;1.63;0.45;;;23.50;47.40;;;;;;5089804;28;20372;-79
2021/04/14 06:20:06;;;;;;;4.57;0.50;;;23.70;47.20;;;;;;5089172;28;20459;-79
2021/04/14 06:22:34;;;;;;;2.10;0.40;;;23.80;47.50;;;;;;5086999;28;20388;-79
2021/04/14 06:25:01;;;;;;;9.65;0.60;;;23.70;46.10;;;;;;5088373;28;20384;-79
2021/04/14 06:27:45;;;;;;;5.20;1.00;;;23.70;47.10;;;;;;5084788;28;20382;-79
2021/04/14 06:30:12;;;;;;;1.35;0.38;;;23.60;47.20;;;;;;5068715;28;20417;-79
2021/04/14 06:32:41;;;;;;;1.25;0.30;;;23.40;47.30;;;;;;5079911;28;20819;-79
2021/04/14 06:35:08;;;;;;;4.75;0.50;;;23.40;47.10;;;;;;5087837;28;20400;-78
2021/04/14 06:37:36;;;;;;;3.17;0.38;;;23.40;46.80;;;;;;5088880;28;20372;-81
2021/04/14 06:43:13;;;;;;;1.75;0.40;;;23.40;46.50;;;;;;5070453;28;20376;-80
2021/04/14 06:45:52;;;;;;;2.42;0.50;;;23.50;47.30;;;;;;5087677;28;20426;-79
2021/04/14 06:48:40;;;;;;;3.20;0.40;;;23.60;47.10;;;;;;5087814;28;20392;-79
2021/04/14 06:51:36;;;;;;;0.55;0.30;;;23.60;47.70;;;;;;5088676;28;20387;-79
2021/04/14 06:54:33;;;;;;;3.30;0.50;;;23.60;47.50;;;;;;5093302;28;20386;-79
2021/04/14 06:57:04;;;;;;;4.13;0.80;;;23.50;47.60;;;;;;5109233;28;20374;-79
2021/04/14 06:59:35;;;;;;;4.85;0.52;;;23.50;48.20;;;;;;5110208;28;20789;-80
2021/04/14 07:02:06;;;;;;;2.50;0.70;;;23.50;46.60;;;;;;5112625;28;20381;-80
2021/04/14 07:04:50;;;;;;;2.33;0.57;;;23.40;48.40;;;;;;5100106;28;20851;-79
2021/04/14 07:07:24;;;;;;;2.10;0.50;;;23.30;49.40;;;;;;5111785;28;20552;-80
2021/04/14 07:09:58;;;;;;;2.50;0.63;;;23.10;49.50;;;;;;5078838;28;20439;-79
2021/04/14 07:12:25;;;;;;;3.15;0.98;;;22.90;48.50;;;;;;5084830;28;20384;-79
2021/04/14 07:14:56;;;;;;;5.57;0.88;;;22.90;48.10;;;;;;5087047;28;20394;-79
2021/04/14 07:17:44;;;;;;;2.45;0.90;;;22.80;49.50;;;;;;5081349;28;20395;-79
2021/04/14 07:20:24;;;;;;;3.63;1.30;;;22.60;49.70;;;;;;5080179;28;20729;-79
2021/04/14 07:23:32;;;;;;;2.85;1.02;;;22.40;50.20;;;;;;5086597;28;20922;-79
2021/04/14 07:26:21;;;;;;;6.03;1.30;;;22.20;49.80;;;;;;5033726;28;20812;-79
2021/04/14 07:29:12;;;;;;;4.22;1.25;;;22.10;51.00;;;;;;5089239;28;20889;-79
2021/04/14 07:32:05;;;;;;;3.03;1.20;;;21.90;51.50;;;;;;5083681;28;20385;-78
2021/04/14 07:35:00;;;;;;;4.13;1.58;;;21.80;52.30;;;;;;5076988;28;20424;-79
2021/04/14 07:37:58;;;;;;;2.88;1.40;;;21.60;52.40;;;;;;5081067;28;20608;-78
2021/04/14 07:40:43;;;;;;;5.68;1.20;;;21.50;53.70;;;;;;5101404;28;20371;-79
2021/04/14 07:43:19;;;;;;;3.15;1.25;;;21.40;53.00;;;;;;5081840;28;20481;-79
2021/04/14 07:45:51;;;;;;;2.97;1.20;;;21.30;54.60;;;;;;5083876;28;20485;-79
2021/04/14 07:48:31;;;;;;;3.13;1.00;;;21.20;54.40;;;;;;5090358;28;20824;-79
2021/04/14 07:51:03;;;;;;;3.15;0.93;;;21.10;54.80;;;;;;5087481;28;20760;-79
2021/04/14 07:53:35;;;;;;;3.22;1.02;;;21.10;54.50;;;;;;5082917;28;20386;-79
2021/04/14 07:56:20;;;;;;;3.40;1.20;;;21.10;54.00;;;;;;5085528;28;20415;-79
2021/04/14 07:58:52;;;;;;;4.20;0.90;;;21.00;54.50;;;;;;5090278;28;20437;-79
2021/04/14 08:01:24;;;;;;;2.83;0.97;;;21.00;54.70;;;;;;5091943;28;20450;-79
2021/04/14 08:03:53;;;;;;;2.08;1.05;;;20.90;55.90;;;;;;5094275;28;20955;-79
2021/04/14 08:06:30;;;;;;;4.50;1.08;;;20.90;56.50;;;;;;5090508;28;20447;-79
2021/04/14 08:09:08;;;;;;;3.10;0.93;;;20.90;56.00;;;;;;5079794;28;20386;-79
2021/04/14 08:11:37;;;;;;;3.13;0.90;;;20.90;55.40;;;;;;5071268;28;20461;-79
2021/04/14 08:14:15;;;;;;;2.67;0.82;;;20.90;55.30;;;;;;5073539;28;20445;-79
2021/04/14 08:16:52;;;;;;;3.42;1.17;;;20.90;56.40;;;;;;5077880;28;20396;-80
2021/04/14 08:19:19;;;;;;;2.60;0.90;;;20.90;57.70;;;;;;5091429;28;20475;-79
2021/04/14 08:22:01;;;;;;;4.18;0.90;;;21.00;55.40;;;;;;5092194;28;20387;-78
2021/04/14 08:24:41;;;;;;;3.40;1.02;;;21.00;55.90;;;;;;5078558;28;20980;-79
2021/04/14 08:27:20;;;;;;;3.17;1.00;;;21.00;55.80;;;;;;5085237;28;20492;-80
2021/04/14 08:30:03;;;;;;;3.17;1.20;;;20.90;56.60;;;;;;5089652;28;20772;-79
2021/04/14 08:32:42;;;;;;;2.58;0.82;;;21.00;55.70;;;;;;5081672;28;20400;-79
2021/04/14 08:35:30;;;;;;;3.28;1.20;;;20.90;56.20;;;;;;5088904;28;20404;-79
2021/04/14 08:38:22;;;;;;;4.07;1.00;;;20.90;55.30;;;;;;5085390;28;20391;-79
2021/04/14 08:40:55;;;;;;;3.60;1.17;;;21.00;55.40;;;;;;5079571;28;20392;-80
2021/04/14 08:43:40;;;;;;;4.82;1.15;;;21.00;55.20;;;;;;5089837;28;20759;-80
2021/04/14 08:46:31;;;;;;;7.97;1.20;;;20.90;55.40;;;;;;5070022;28;20374;-80
2021/04/14 08:49:10;;;;;;;8.18;1.35;;;20.90;55.10;;;;;;5086411;28;20400;-80
2021/04/14 08:51:40;;;;;;;4.93;2.58;;;20.90;56.40;;;;;;5089755;28;20796;-81
2021/04/14 08:54:10;;;;;;;5.07;2.25;;;20.90;54.90;;;;;;5077936;28;20407;-80
2021/04/14 08:56:37;;;;;;;4.30;0.95;;;20.90;55.50;;;;;;5083630;28;20459;-80
2021/04/14 08:59:04;;;;;;;2.92;1.30;;;20.90;54.50;;;;;;5073851;28;21025;-80
2021/04/14 09:01:32;;;;;;;2.50;0.90;;;20.90;55.50;;;;;;5085028;28;20407;-80
2021/04/14 09:04:01;;;;;;;2.88;0.90;;;20.80;55.70;;;;;;5088506;28;20384;-80
2021/04/14 09:06:32;;;;;;;3.53;1.02;;;20.80;54.60;;;;;;5089708;28;20384;-80
2021/04/14 09:09:04;;;;;;;3.25;1.00;;;20.80;53.30;;;;;;5088092;28;20392;-80
2021/04/14 09:11:31;;;;;;;3.13;1.00;;;20.90;53.40;;;;;;5078785;28;20395;-80
2021/04/14 09:14:14;;;;;;;4.07;1.17;;;20.90;52.70;;;;;;5089389;28;20433;-80
2021/04/14 09:17:14;;;;;;;2.55;0.95;;;20.90;52.90;;;;;;5089655;28;20385;-80
2021/04/14 09:19:44;;;;;;;3.35;0.82;;;20.90;52.70;;;;;;5089435;28;20372;-80
2021/04/14 09:22:28;;;;;;;5.38;1.02;;;20.90;52.20;;;;;;5087237;28;20398;-80
2021/04/14 09:25:04;;;;;;;4.50;0.93;;;21.00;52.30;;;;;;5072165;28;20743;-80
2021/04/14 09:27:37;;;;;;;2.47;0.88;;;21.00;52.10;;;;;;5074576;28;20848;-85
2021/04/14 09:30:10;;;;;;;4.90;0.90;;;21.00;52.30;;;;;;5083915;28;20937;-80
2021/04/14 09:33:06;;;;;;;0.90;0.60;;;20.90;51.80;;;;;;5073573;28;20454;-80
2021/04/14 09:35:33;;;;;;;2.10;0.80;;;20.90;52.00;;;;;;5076119;28;20476;-81
2021/04/14 09:38:12;;;;;;;4.70;0.80;;;20.90;52.20;;;;;;5084612;28;20389;-81
2021/04/14 09:40:39;;;;;;;6.25;0.80;;;20.80;52.00;;;;;;5082545;28;20450;-80
2021/04/14 09:43:27;;;;;;;1.88;0.60;;;20.70;52.70;;;;;;5083174;28;20471;-81
2021/04/14 09:46:04;;;;;;;2.70;0.75;;;20.50;52.90;;;;;;5074745;28;20477;-81
2021/04/14 09:48:50;;;;;;;2.42;0.73;;;20.40;54.00;;;;;;5082479;28;20396;-81
2021/04/14 09:51:36;;;;;;;3.07;0.80;;;20.30;53.30;;;;;;5081225;28;20396;-81
2021/04/14 09:54:14;;;;;;;6.35;0.98;;;20.20;53.70;;;;;;5086457;28;20404;-80
2021/04/14 09:56:50;;;;;;;4.45;1.05;;;20.10;55.20;;;;;;5071392;28;20394;-81
2021/04/14 09:59:23;;;;;;;6.90;1.20;;;20.00;55.50;;;;;;5077148;28;20441;-81
2021/04/14 10:01:51;;;;;;;3.78;1.10;;;19.80;54.70;;;;;;5085193;28;20736;-81
2021/04/14 10:04:22;;;;;;;2.28;1.15;;;19.70;55.50;;;;;;5085394;28;20427;-81
2021/04/14 10:07:01;;;;;;;8.05;1.30;;;19.60;56.20;;;;;;5075417;28;20405;-80
2021/04/14 10:09:32;;;;;;;4.35;1.20;;;19.50;56.40;;;;;;5073059;28;20419;-80
2021/04/14 10:12:27;;;;;;;5.70;1.37;;;19.40;57.00;;;;;;5082286;28;20511;-80
2021/04/14 10:15:00;;;;;;;6.82;1.20;;;19.40;56.30;;;;;;5071192;28;20396;-80
2021/04/14 10:17:31;;;;;;;5.32;1.23;;;19.30;56.70;;;;;;5083788;28;20424;-80
2021/04/14 10:20:21;;;;;;;7.47;1.27;;;19.30;57.50;;;;;;5084036;28;20372;-80
2021/04/14 10:22:52;;;;;;;5.82;1.40;;;19.30;58.30;;;;;;5066132;28;20393;-80
2021/04/14 10:25:25;;;;;;;4.00;0.95;;;19.30;57.80;;;;;;5074989;28;20474;-80
2021/04/14 10:28:20;;;;;;;3.22;1.10;;;19.30;56.70;;;;;;5084816;28;20999;-80
2021/04/14 10:31:08;;;;;;;4.88;1.20;;;19.40;56.60;;;;;;5082687;28;20411;-80
2021/04/14 10:33:38;;;;;;;3.30;1.10;;;19.50;57.40;;;;;;5091289;28;20391;-80
2021/04/14 10:36:21;;;;;;;3.40;1.08;;;19.50;56.70;;;;;;5087361;28;20404;-81
2021/04/14 10:38:48;;;;;;;3.90;1.10;;;19.50;56.50;;;;;;5084618;28;20392;-80
2021/04/14 10:41:34;;;;;;;3.10;1.20;;;19.50;55.90;;;;;;5084359;28;20388;-80
2021/04/14 10:44:01;;;;;;;2.53;1.10;;;19.60;56.30;;;;;;5093791;28;20800;-80
2021/04/14 10:46:35;;;;;;;2.20;1.00;;;19.60;56.50;;;;;;5089005;28;20396;-81
2021/04/14 10:49:23;;;;;;;4.90;1.02;;;19.60;56.50;;;;;;5104340;28;20403;-80
2021/04/14 10:51:54;;;;;;;4.28;1.25;;;19.60;57.10;;;;;;5069266;28;20457;-80
2021/04/14 10:54:32;;;;;;;4.25;0.98;;;19.50;57.00;;;;;;5073574;28;20393;-80
2021/04/14 10:57:06;;;;;;;6.30;1.45;;;19.50;55.90;;;;;;5084657;28;20412;-81
2021/04/14 10:59:37;;;;;;;5.95;1.30;;;19.50;56.40;;;;;;5078903;28;20380;-80
2021/04/14 11:02:22;;;;;;;3.60;1.40;;;19.40;57.00;;;;;;5084264;28;20456;-81
2021/04/14 11:04:51;;;;;;;2.58;1.27;;;19.40;57.50;;;;;;5085072;28;20418;-80
2021/04/14 11:07:23;;;;;;;4.90;1.50;;;19.30;58.20;;;;;;5079711;28;20880;-80
2021/04/14 11:09:52;;;;;;;3.50;1.10;;;19.20;57.70;;;;;;5087858;28;20457;-80
2021/04/14 11:12:24;;;;;;;5.10;1.17;;;19.20;57.80;;;;;;5087738;28;20392;-80
2021/04/14 11:15:01;;;;;;;6.50;1.50;;;19.10;57.90;;;;;;5088756;28;20937;-81
2021/04/14 11:17:31;;;;;;;3.40;1.30;;;19.10;59.10;;;;;;5087888;28;20391;-80
2021/04/14 11:20:02;;;;;;;5.78;1.23;;;19.00;59.80;;;;;;5087061;28;20388;-79
2021/04/14 11:22:42;;;;;;;5.20;1.20;;;19.00;59.40;;;;;;5082833;28;20408;-80
2021/04/14 11:25:10;;;;;;;3.97;1.27;;;19.00;59.80;;;;;;5115587;27;20457;-80
2021/04/14 11:27:37;;;;;;;3.75;1.30;;;19.00;60.00;;;;;;5091951;28;20510;-79
2021/04/14 11:30:07;;;;;;;3.03;1.27;;;19.00;60.40;;;;;;5096689;28;20373;-80
2021/04/14 11:32:35;;;;;;;5.20;1.13;;;19.00;58.70;;;;;;5090533;28;20391;-81
2021/04/14 11:35:06;;;;;;;2.67;1.02;;;19.00;59.20;;;;;;5089011;28;20432;-81
2021/04/14 11:37:36;;;;;;;3.67;1.20;;;18.90;59.90;;;;;;5079452;28;20377;-81
2021/04/14 11:40:05;;;;;;;5.20;1.33;;;18.90;59.50;;;;;;5092292;28;20392;-80
2021/04/14 11:42:59;;;;;;;2.22;1.02;;;18.90;58.10;;;;;;5091304;28;20871;-79
2021/04/14 11:45:55;;;;;;;5.40;1.10;;;18.80;59.80;;;;;;5087381;28;20379;-82
2021/04/14 11:48:50;;;;;;;5.68;1.30;;;18.70;61.90;;;;;;5091870;28;20385;-80
2021/04/14 11:51:38;;;;;;;2.13;1.23;;;18.60;61.00;;;;;;5084023;28;20909;-80
2021/04/14 11:54:05;;;;;;;3.80;1.15;;;18.50;62.50;;;;;;5090612;28;20376;-79
2021/04/14 11:57:05;;;;;;;3.70;1.10;;;18.40;63.00;;;;;;5089956;28;20388;-79
2021/04/14 11:59:36;;;;;;;4.55;0.98;;;18.30;61.70;;;;;;5080653;28;20391;-80
2021/04/14 12:02:28;;;;;;;7.18;1.00;;;18.50;59.50;;;;;;5087806;28;20393;-79
2021/04/14 12:05:01;;;;;;;6.07;1.02;;;18.50;59.10;;;;;;5082814;28;20388;-80
2021/04/14 12:07:28;;;;;;;6.28;1.30;;;18.60;58.60;;;;;;5076781;28;20878;-81
2021/04/14 12:09:55;;;;;;;3.85;1.10;;;18.80;57.80;;;;;;5081892;28;20894;-80
2021/04/14 12:12:23;;;;;;;4.57;1.20;;;18.70;60.10;;;;;;5088333;28;20758;-80
2021/04/14 12:14:50;;;;;;;4.88;1.00;;;18.70;60.40;;;;;;5085897;28;20755;-80
2021/04/14 12:17:22;;;;;;;2.40;0.90;;;18.50;59.90;;;;;;5080221;28;20488;-81
2021/04/14 12:19:49;;;;;;;5.25;1.30;;;18.50;59.40;;;;;;5082254;28;20405;-80
2021/04/14 12:22:16;;;;;;;3.92;1.30;;;18.50;60.30;;;;;;5084137;28;20891;-80
2021/04/14 12:24:44;;;;;;;4.45;1.33;;;18.40;60.30;;;;;;5076215;28;20515;-80
2021/04/14 12:27:12;;;;;;;4.50;1.00;;;18.40;58.90;;;;;;5087571;28;21337;-79
2021/04/14 12:29:40;;;;;;;4.78;1.20;;;18.50;58.80;;;;;;5087081;28;20394;-80
2021/04/14 12:32:08;;;;;;;3.95;1.02;;;18.60;57.90;;;;;;5087735;28;20392;-80
2021/04/14 12:34:35;;;;;;;5.32;1.30;;;18.70;57.50;;;;;;5084365;28;20448;-80
2021/04/14 12:37:02;;;;;;;4.10;1.20;;;18.80;57.10;;;;;;5084739;28;20392;-80
2021/04/14 12:39:29;;;;;;;4.63;1.15;;;18.90;56.60;;;;;;5081927;28;20400;-80
2021/04/14 12:41:56;;;;;;;2.78;1.23;;;18.90;56.50;;;;;;5083393;28;20410;-80
2021/04/14 12:44:23;;;;;;;9.05;1.20;;;19.00;56.40;;;;;;5082405;28;20417;-80
2021/04/14 12:46:51;;;;;;;3.35;0.98;;;19.10;56.40;;;;;;5082925;28;20384;-80
2021/04/14 12:49:21;;;;;;;7.68;1.40;;;19.10;56.20;;;;;;5085398;28;20475;-80
2021/04/14 12:51:55;;;;;;;2.97;1.30;;;19.10;56.10;;;;;;5084485;28;20445;-80
2021/04/14 12:54:38;;;;;;;3.93;0.93;;;19.20;56.30;;;;;;5083273;28;20392;-80
2021/04/14 12:57:21;;;;;;;2.42;0.98;;;19.20;56.30;;;;;;5082450;28;20401;-81
2021/04/14 12:59:53;;;;;;;4.20;1.00;;;19.10;56.70;;;;;;5081685;28;20529;-80
2021/04/14 13:02:27;;;;;;;5.82;1.00;;;19.10;56.30;;;;;;5081254;28;20394;-80
2021/04/14 13:05:10;;;;;;;8.93;1.23;;;19.20;56.30;;;;;;5083677;28;20410;-81
2021/04/14 13:08:03;;;;;;;3.10;1.05;;;19.30;56.40;;;;;;5087302;28;20411;-81
2021/04/14 13:10:45;;;;;;;2.00;0.95;;;19.20;56.80;;;;;;5079542;28;20843;-81
2021/04/14 13:13:12;;;;;;;4.67;1.40;;;19.10;56.80;;;;;;5086648;28;20434;-81
2021/04/14 13:15:48;;;;;;;4.18;1.10;;;19.10;56.70;;;;;;5089471;28;20412;-81
2021/04/14 13:18:15;;;;;;;5.10;0.98;;;19.00;57.10;;;;;;5079158;28;20440;-81